Marcel — ONDP — position and weather

sailwx.info

Track history (hours):
 
Tides and Currents Weather Stations Pressure Air Temp Water Temp Dewpoint Dewpoint Depression Visibility Wind Speed Wind Dir Waves Ship Positions

Marcel

Last reported at 2017-Mar-16 12:16 UTC. Time now 2017-Mar-25 03:54 UTC.
Position N 50°28' W 000°20'.
Warning: this ship's position is 8 days out of date.

Length 88 m; draft 5.2 m.

Type: Cargo ship. MMSI: 205439000.

Date/timePositionNaut miles runAvg speedWind from/ knotsBaromVisibWave heightAir tempDewpointWater temp
2017-Mar-16 12:16N 50°28' W 000°20'6 7.8
2017-Mar-16 11:32N 50°29' W 000°11'8 7.5
2017-Mar-16 10:30N 50°31' E 000°01'31 9.3
2017-Mar-16 07:13N 50°43' E 000°46'2810.3
2017-Mar-16 04:32N 51°00' E 001°19'8 8.0
2017-Mar-16 03:32N 51°05' E 001°29'7 6.7
2017-Mar-16 02:33N 51°10' E 001°37'7 7.1
2017-Mar-16 01:33N 51°14' E 001°45'9 8.9
2017-Mar-16 00:33N 51°21' E 001°54'9 8.8
2017-Mar-15 23:31N 51°23' E 002°09'1010.2
2017-Mar-15 22:33N 51°22' E 002°24'1111.2
2017-Mar-15 21:33N 51°22' E 002°42'1010.4
2017-Mar-15 20:33N 51°22' E 002°59'1111.5
2017-Mar-15 19:33N 51°24' E 003°17'39 7.9
2017-Mar-15 14:33N 51°17' E 004°19'1 1.0
2017-Mar-15 13:33N 51°17' E 004°20'3 2.5
2017-Mar-15 12:30N 51°15' E 004°23'0 0.0
2017-Mar-15 11:32N 51°15' E 004°23'0 0.0
2017-Mar-15 10:29N 51°15' E 004°23'0 0.0
2017-Mar-15 09:32N 51°15' E 004°23'0 0.0
2017-Mar-15 08:30N 51°15' E 004°23'0 0.0
2017-Mar-15 07:26N 51°15' E 004°23'0 0.0
2017-Mar-15 06:31N 51°15' E 004°23'0 0.0
2017-Mar-15 05:32N 51°15' E 004°23'0 0.0
2017-Mar-15 04:29N 51°15' E 004°23'0 0.0
2017-Mar-15 03:26N 51°15' E 004°23'0 0.0
2017-Mar-15 02:29N 51°15' E 004°23'0 0.0
2017-Mar-15 01:27N 51°15' E 004°23'0 0.0
2017-Mar-15 00:29N 51°15' E 004°23'0 0.0
2017-Mar-14 23:32N 51°15' E 004°23'0 0.0
2017-Mar-14 22:28N 51°15' E 004°23'0 0.0
2017-Mar-14 21:32N 51°15' E 004°23'0 0.0
2017-Mar-14 20:32N 51°15' E 004°23'0 0.0
2017-Mar-14 19:33N 51°15' E 004°23'0 0.0
2017-Mar-14 18:30N 51°15' E 004°23'0 0.0
2017-Mar-14 17:32N 51°15' E 004°23'0 0.0
2017-Mar-14 16:29N 51°15' E 004°23'0 0.0
2017-Mar-14 15:27N 51°15' E 004°23'0 0.0
2017-Mar-14 14:22N 51°15' E 004°23'0 0.0
2017-Mar-14 13:27N 51°15' E 004°23'0 0.0
2017-Mar-14 12:30N 51°15' E 004°23'0 0.0
2017-Mar-14 11:27N 51°15' E 004°23'0 0.0
2017-Mar-14 10:31N 51°15' E 004°23'0 0.0
2017-Mar-14 09:33N 51°15' E 004°23'0 0.0
2017-Mar-14 08:31N 51°15' E 004°23'0 0.0
2017-Mar-14 07:24N 51°15' E 004°23'0 0.0
2017-Mar-14 06:29N 51°15' E 004°23'0 0.0
2017-Mar-14 05:24N 51°15' E 004°23'0 0.0
2017-Mar-14 04:28N 51°15' E 004°23'0 0.0
2017-Mar-14 03:33N 51°15' E 004°23'0 0.0
2017-Mar-14 02:31N 51°15' E 004°23'0 0.0
2017-Mar-14 01:33N 51°15' E 004°23'0 0.0
2017-Mar-14 00:31N 51°15' E 004°23'0 0.0
2017-Mar-13 23:27N 51°15' E 004°23'0 0.0
2017-Mar-13 22:31N 51°15' E 004°23'0 0.0
2017-Mar-13 21:21N 51°15' E 004°23'0 0.0
2017-Mar-13 20:29N 51°15' E 004°23'0 0.0
2017-Mar-13 19:33N 51°15' E 004°23'0 0.0
2017-Mar-13 18:31N 51°15' E 004°23'0 0.0
2017-Mar-13 17:27N 51°15' E 004°23'0 0.0
2017-Mar-13 16:29N 51°15' E 004°23'0 0.0
2017-Mar-13 15:32N 51°15' E 004°23'0 0.0
2017-Mar-13 14:31N 51°15' E 004°23'0 0.0
2017-Mar-13 13:33N 51°15' E 004°23'0 0.0
2017-Mar-13 12:32N 51°15' E 004°23'0 0.0
2017-Mar-13 11:32N 51°15' E 004°23'0 0.0
2017-Mar-13 10:31N 51°15' E 004°23'0 0.0
2017-Mar-13 09:27N 51°15' E 004°23'0 0.0
2017-Mar-13 08:30N 51°15' E 004°23'0 0.0
2017-Mar-13 07:32N 51°15' E 004°23'0 0.0
2017-Mar-13 06:31N 51°15' E 004°23'0 0.0
2017-Mar-13 05:27N 51°15' E 004°23'0 0.0
2017-Mar-13 04:28N 51°15' E 004°23'0 0.0
2017-Mar-13 03:33N 51°15' E 004°23'7 6.7
2017-Mar-13 02:31N 51°21' E 004°17'3 2.6
2017-Mar-13 01:33N 51°22' E 004°14'9 9.0
2017-Mar-13 00:33N 51°26' E 004°01'1010.3
2017-Mar-12 23:33N 51°22' E 003°46'1010.3
2017-Mar-12 22:33N 51°25' E 003°30'1110.6
2017-Mar-12 21:33N 51°23' E 003°13'9 9.4
2017-Mar-12 20:34N 51°21' E 002°59'9 8.9
2017-Mar-12 19:34N 51°22' E 002°44'7 7.4
2017-Mar-12 18:34N 51°22' E 002°32'7 6.9
2017-Mar-12 17:33N 51°19' E 002°22'9 9.3
2017-Mar-12 16:33N 51°14' E 002°09'1111.1
2017-Mar-12 15:33N 51°09' E 001°54'1211.7
2017-Mar-12 14:32N 51°01' E 001°40'34 2.6
2017-Mar-12 01:24N 50°56' E 000°46'0 0.0
2017-Mar-11 23:19N 50°56' E 000°46'20 1.8
2017-Mar-11 12:31N 50°59' E 001°17'7 7.4
2017-Mar-11 11:33N 51°04' E 001°26'7 7.3
2017-Mar-11 10:33N 51°08' E 001°35'8 8.5
2017-Mar-11 09:33N 51°14' E 001°45'1110.7
2017-Mar-11 08:33N 51°23' E 001°54'1211.9
2017-Mar-11 07:32N 51°33' E 002°05'1311.7
2017-Mar-11 06:27N 51°42' E 002°20'56 8.9
2017-Mar-11 00:13N 52°03' E 003°43'6 8.9
2017-Mar-10 23:33N 52°03' E 003°53'9 8.6
2017-Mar-10 22:33N 51°58' E 004°04'1 1.3
2017-Mar-10 21:27N 51°58' E 004°02'0 0.0
2017-Mar-10 20:30N 51°58' E 004°02'0 0.0
2017-Mar-10 19:27N 51°58' E 004°02'0 0.0
2017-Mar-10 18:26N 51°58' E 004°02'0 0.0
2017-Mar-10 17:29N 51°58' E 004°02'0 0.0
2017-Mar-10 16:32N 51°58' E 004°02'0 0.0
2017-Mar-10 15:31N 51°58' E 004°02'0 0.0
2017-Mar-10 14:29N 51°58' E 004°02'0 0.0
2017-Mar-10 13:27N 51°58' E 004°02'0 0.0
2017-Mar-10 12:33N 51°58' E 004°02'0 0.0
2017-Mar-10 11:29N 51°58' E 004°02'0 0.0
2017-Mar-10 10:33N 51°58' E 004°02'0 0.0
2017-Mar-10 09:33N 51°58' E 004°02'0 0.0
2017-Mar-10 08:27N 51°58' E 004°02'0 0.0
2017-Mar-10 07:29N 51°58' E 004°02'0 0.0
2017-Mar-10 06:33N 51°58' E 004°02'0 0.0
2017-Mar-10 05:29N 51°58' E 004°02'0 0.0
2017-Mar-10 04:33N 51°58' E 004°02'4 4.0
2017-Mar-10 03:33N 51°58' E 004°08'1111.0
2017-Mar-10 02:34N 51°51' E 004°21'10 9.2
2017-Mar-10 01:31N 51°48' E 004°36'1 0.2
2017-Mar-09 18:08N 51°48' E 004°38'4 6.6
2017-Mar-09 17:33N 51°50' E 004°33'8 7.5
2017-Mar-09 16:33N 51°51' E 004°21'6 6.1
2017-Mar-09 15:33N 51°55' E 004°14'8 7.9
2017-Mar-09 14:33N 51°59' E 004°03'195 6.7
2017-Mar-08 09:29N 54°00' E 008°18'1110.4
2017-Mar-08 08:24N 53°58' E 008°36'7 7.9
2017-Mar-08 07:33N 53°53' E 008°43'6 6.5
2017-Mar-08 06:34N 53°51' E 008°54'7 6.7
2017-Mar-08 05:33N 53°53' E 009°05'8 7.8
2017-Mar-08 04:33N 53°52' E 009°18'1110.7
2017-Mar-08 03:33N 53°43' E 009°28'4 4.0
2017-Mar-08 02:32N 53°39' E 009°31'0 0.0
2017-Mar-08 01:31N 53°39' E 009°31'0 0.0
2017-Mar-08 00:33N 53°39' E 009°31'0 0.0
2017-Mar-07 23:32N 53°39' E 009°31'0 0.0
2017-Mar-07 22:29N 53°39' E 009°31'0 0.0
2017-Mar-07 21:29N 53°39' E 009°31'0 0.0
2017-Mar-07 20:32N 53°39' E 009°31'0 0.0
2017-Mar-07 19:31N 53°39' E 009°31'0 0.0
2017-Mar-07 18:27N 53°39' E 009°31'0 0.0
2017-Mar-07 17:31N 53°39' E 009°31'0 0.0
2017-Mar-07 16:33N 53°39' E 009°31'0 0.0
2017-Mar-07 15:31N 53°39' E 009°31'0 0.0
2017-Mar-07 14:33N 53°39' E 009°31'0 0.0
2017-Mar-07 13:27N 53°39' E 009°31'0 0.0
2017-Mar-07 12:28N 53°39' E 009°31'0 0.0
2017-Mar-07 11:31N 53°39' E 009°31'0 0.0
2017-Mar-07 10:31N 53°39' E 009°31'0 0.0
2017-Mar-07 09:32N 53°39' E 009°31'0 0.0
2017-Mar-07 08:31N 53°39' E 009°31'0 0.0
2017-Mar-07 07:33N 53°39' E 009°31'0 0.0
2017-Mar-07 06:32N 53°39' E 009°31'0 0.0
2017-Mar-07 05:33N 53°39' E 009°31'1010.1
2017-Mar-07 04:34N 53°48' E 009°22'1110.9
2017-Mar-07 03:33N 53°52' E 009°05'1110.6
2017-Mar-07 02:33N 53°50' E 008°48'10 9.4
2017-Mar-07 01:33N 53°57' E 008°37'9 8.9
2017-Mar-07 00:33N 53°59' E 008°22'  
Track history (hours):
 
Tides and Currents Weather Stations Pressure Air Temp Water Temp Dewpoint Dewpoint Depression Visibility Wind Speed Wind Dir Waves Ship Positions

Marcel

Last reported at 2017-Mar-16 12:16 UTC. Time now 2017-Mar-25 03:54 UTC.
Position N 50°28' W 000°20'.
Warning: this ship's position is 8 days out of date.

Length 88 m; draft 5.2 m.

Type: Cargo ship. MMSI: 205439000.

Date/timePositionNaut miles runAvg speedWind from/ knotsBaromVisibWave heightAir tempDewpointWater temp
2017-Mar-16 12:16N 50°28' W 000°20'6 7.8
2017-Mar-16 11:32N 50°29' W 000°11'8 7.5
2017-Mar-16 10:30N 50°31' E 000°01'31 9.3
2017-Mar-16 07:13N 50°43' E 000°46'2810.3
2017-Mar-16 04:32N 51°00' E 001°19'8 8.0
2017-Mar-16 03:32N 51°05' E 001°29'7 6.7
2017-Mar-16 02:33N 51°10' E 001°37'7 7.1
2017-Mar-16 01:33N 51°14' E 001°45'9 8.9
2017-Mar-16 00:33N 51°21' E 001°54'9 8.8
2017-Mar-15 23:31N 51°23' E 002°09'1010.2
2017-Mar-15 22:33N 51°22' E 002°24'1111.2
2017-Mar-15 21:33N 51°22' E 002°42'1010.4
2017-Mar-15 20:33N 51°22' E 002°59'1111.5
2017-Mar-15 19:33N 51°24' E 003°17'39 7.9
2017-Mar-15 14:33N 51°17' E 004°19'1 1.0
2017-Mar-15 13:33N 51°17' E 004°20'3 2.5
2017-Mar-15 12:30N 51°15' E 004°23'0 0.0
2017-Mar-15 11:32N 51°15' E 004°23'0 0.0
2017-Mar-15 10:29N 51°15' E 004°23'0 0.0
2017-Mar-15 09:32N 51°15' E 004°23'0 0.0
2017-Mar-15 08:30N 51°15' E 004°23'0 0.0
2017-Mar-15 07:26N 51°15' E 004°23'0 0.0
2017-Mar-15 06:31N 51°15' E 004°23'0 0.0
2017-Mar-15 05:32N 51°15' E 004°23'0 0.0
2017-Mar-15 04:29N 51°15' E 004°23'0 0.0
2017-Mar-15 03:26N 51°15' E 004°23'0 0.0
2017-Mar-15 02:29N 51°15' E 004°23'0 0.0
2017-Mar-15 01:27N 51°15' E 004°23'0 0.0
2017-Mar-15 00:29N 51°15' E 004°23'0 0.0
2017-Mar-14 23:32N 51°15' E 004°23'0 0.0
2017-Mar-14 22:28N 51°15' E 004°23'0 0.0
2017-Mar-14 21:32N 51°15' E 004°23'0 0.0
2017-Mar-14 20:32N 51°15' E 004°23'0 0.0
2017-Mar-14 19:33N 51°15' E 004°23'0 0.0
2017-Mar-14 18:30N 51°15' E 004°23'0 0.0
2017-Mar-14 17:32N 51°15' E 004°23'0 0.0
2017-Mar-14 16:29N 51°15' E 004°23'0 0.0
2017-Mar-14 15:27N 51°15' E 004°23'0 0.0
2017-Mar-14 14:22N 51°15' E 004°23'0 0.0
2017-Mar-14 13:27N 51°15' E 004°23'0 0.0
2017-Mar-14 12:30N 51°15' E 004°23'0 0.0
2017-Mar-14 11:27N 51°15' E 004°23'0 0.0
2017-Mar-14 10:31N 51°15' E 004°23'0 0.0
2017-Mar-14 09:33N 51°15' E 004°23'0 0.0
2017-Mar-14 08:31N 51°15' E 004°23'0 0.0
2017-Mar-14 07:24N 51°15' E 004°23'0 0.0
2017-Mar-14 06:29N 51°15' E 004°23'0 0.0
2017-Mar-14 05:24N 51°15' E 004°23'0 0.0
2017-Mar-14 04:28N 51°15' E 004°23'0 0.0
2017-Mar-14 03:33N 51°15' E 004°23'0 0.0
2017-Mar-14 02:31N 51°15' E 004°23'0 0.0
2017-Mar-14 01:33N 51°15' E 004°23'0 0.0
2017-Mar-14 00:31N 51°15' E 004°23'0 0.0
2017-Mar-13 23:27N 51°15' E 004°23'0 0.0
2017-Mar-13 22:31N 51°15' E 004°23'0 0.0
2017-Mar-13 21:21N 51°15' E 004°23'0 0.0
2017-Mar-13 20:29N 51°15' E 004°23'0 0.0
2017-Mar-13 19:33N 51°15' E 004°23'0 0.0
2017-Mar-13 18:31N 51°15' E 004°23'0 0.0
2017-Mar-13 17:27N 51°15' E 004°23'0 0.0
2017-Mar-13 16:29N 51°15' E 004°23'0 0.0
2017-Mar-13 15:32N 51°15' E 004°23'0 0.0
2017-Mar-13 14:31N 51°15' E 004°23'0 0.0
2017-Mar-13 13:33N 51°15' E 004°23'0 0.0
2017-Mar-13 12:32N 51°15' E 004°23'0 0.0
2017-Mar-13 11:32N 51°15' E 004°23'0 0.0
2017-Mar-13 10:31N 51°15' E 004°23'0 0.0
2017-Mar-13 09:27N 51°15' E 004°23'0 0.0
2017-Mar-13 08:30N 51°15' E 004°23'0 0.0
2017-Mar-13 07:32N 51°15' E 004°23'0 0.0
2017-Mar-13 06:31N 51°15' E 004°23'0 0.0
2017-Mar-13 05:27N 51°15' E 004°23'0 0.0
2017-Mar-13 04:28N 51°15' E 004°23'0 0.0
2017-Mar-13 03:33N 51°15' E 004°23'7 6.7
2017-Mar-13 02:31N 51°21' E 004°17'3 2.6
2017-Mar-13 01:33N 51°22' E 004°14'9 9.0
2017-Mar-13 00:33N 51°26' E 004°01'1010.3
2017-Mar-12 23:33N 51°22' E 003°46'1010.3
2017-Mar-12 22:33N 51°25' E 003°30'1110.6
2017-Mar-12 21:33N 51°23' E 003°13'9 9.4
2017-Mar-12 20:34N 51°21' E 002°59'9 8.9
2017-Mar-12 19:34N 51°22' E 002°44'7 7.4
2017-Mar-12 18:34N 51°22' E 002°32'7 6.9
2017-Mar-12 17:33N 51°19' E 002°22'9 9.3
2017-Mar-12 16:33N 51°14' E 002°09'1111.1
2017-Mar-12 15:33N 51°09' E 001°54'1211.7
2017-Mar-12 14:32N 51°01' E 001°40'34 2.6
2017-Mar-12 01:24N 50°56' E 000°46'0 0.0
2017-Mar-11 23:19N 50°56' E 000°46'20 1.8
2017-Mar-11 12:31N 50°59' E 001°17'7 7.4
2017-Mar-11 11:33N 51°04' E 001°26'7 7.3
2017-Mar-11 10:33N 51°08' E 001°35'8 8.5
2017-Mar-11 09:33N 51°14' E 001°45'1110.7
2017-Mar-11 08:33N 51°23' E 001°54'1211.9
2017-Mar-11 07:32N 51°33' E 002°05'1311.7
2017-Mar-11 06:27N 51°42' E 002°20'56 8.9
2017-Mar-11 00:13N 52°03' E 003°43'6 8.9
2017-Mar-10 23:33N 52°03' E 003°53'9 8.6
2017-Mar-10 22:33N 51°58' E 004°04'1 1.3
2017-Mar-10 21:27N 51°58' E 004°02'0 0.0
2017-Mar-10 20:30N 51°58' E 004°02'0 0.0
2017-Mar-10 19:27N 51°58' E 004°02'0 0.0
2017-Mar-10 18:26N 51°58' E 004°02'0 0.0
2017-Mar-10 17:29N 51°58' E 004°02'0 0.0
2017-Mar-10 16:32N 51°58' E 004°02'0 0.0
2017-Mar-10 15:31N 51°58' E 004°02'0 0.0
2017-Mar-10 14:29N 51°58' E 004°02'0 0.0
2017-Mar-10 13:27N 51°58' E 004°02'0 0.0
2017-Mar-10 12:33N 51°58' E 004°02'0 0.0
2017-Mar-10 11:29N 51°58' E 004°02'0 0.0
2017-Mar-10 10:33N 51°58' E 004°02'0 0.0
2017-Mar-10 09:33N 51°58' E 004°02'0 0.0
2017-Mar-10 08:27N 51°58' E 004°02'0 0.0
2017-Mar-10 07:29N 51°58' E 004°02'0 0.0
2017-Mar-10 06:33N 51°58' E 004°02'0 0.0
2017-Mar-10 05:29N 51°58' E 004°02'0 0.0
2017-Mar-10 04:33N 51°58' E 004°02'4 4.0
2017-Mar-10 03:33N 51°58' E 004°08'1111.0
2017-Mar-10 02:34N 51°51' E 004°21'10 9.2
2017-Mar-10 01:31N 51°48' E 004°36'1 0.2
2017-Mar-09 18:08N 51°48' E 004°38'4 6.6
2017-Mar-09 17:33N 51°50' E 004°33'8 7.5
2017-Mar-09 16:33N 51°51' E 004°21'6 6.1
2017-Mar-09 15:33N 51°55' E 004°14'8 7.9
2017-Mar-09 14:33N 51°59' E 004°03'195 6.7
2017-Mar-08 09:29N 54°00' E 008°18'1110.4
2017-Mar-08 08:24N 53°58' E 008°36'7 7.9
2017-Mar-08 07:33N 53°53' E 008°43'6 6.5
2017-Mar-08 06:34N 53°51' E 008°54'7 6.7
2017-Mar-08 05:33N 53°53' E 009°05'8 7.8
2017-Mar-08 04:33N 53°52' E 009°18'1110.7
2017-Mar-08 03:33N 53°43' E 009°28'4 4.0
2017-Mar-08 02:32N 53°39' E 009°31'0 0.0
2017-Mar-08 01:31N 53°39' E 009°31'0 0.0
2017-Mar-08 00:33N 53°39' E 009°31'0 0.0
2017-Mar-07 23:32N 53°39' E 009°31'0 0.0
2017-Mar-07 22:29N 53°39' E 009°31'0 0.0
2017-Mar-07 21:29N 53°39' E 009°31'0 0.0
2017-Mar-07 20:32N 53°39' E 009°31'0 0.0
2017-Mar-07 19:31N 53°39' E 009°31'0 0.0
2017-Mar-07 18:27N 53°39' E 009°31'0 0.0
2017-Mar-07 17:31N 53°39' E 009°31'0 0.0
2017-Mar-07 16:33N 53°39' E 009°31'0 0.0
2017-Mar-07 15:31N 53°39' E 009°31'0 0.0
2017-Mar-07 14:33N 53°39' E 009°31'0 0.0
2017-Mar-07 13:27N 53°39' E 009°31'0 0.0
2017-Mar-07 12:28N 53°39' E 009°31'0 0.0
2017-Mar-07 11:31N 53°39' E 009°31'0 0.0
2017-Mar-07 10:31N 53°39' E 009°31'0 0.0
2017-Mar-07 09:32N 53°39' E 009°31'0 0.0
2017-Mar-07 08:31N 53°39' E 009°31'0 0.0
2017-Mar-07 07:33N 53°39' E 009°31'0 0.0
2017-Mar-07 06:32N 53°39' E 009°31'0 0.0
2017-Mar-07 05:33N 53°39' E 009°31'1010.1
2017-Mar-07 04:34N 53°48' E 009°22'1110.9
2017-Mar-07 03:33N 53°52' E 009°05'1110.6
2017-Mar-07 02:33N 53°50' E 008°48'10 9.4
2017-Mar-07 01:33N 53°57' E 008°37'9 8.9
2017-Mar-07 00:33N 53°59' E 008°22'  

Dump ship's entire track history